Terminal Aerodrome Forecast
Issued by NWS Billings, MT

Home | Current Version | Previous Version | Text Only | Print | Product List | Glossary Off
Versions: 1 2 3 4 5 6 7 8 9 10 11 12 13 14 15 16 17 18 19 20 21 22 23 24

000
FTUS45 KBYZ 241129
TAFMLS
TAF
KMLS 241129Z 2412/2512 28015G22KT P6SM VCSH SCT060 BKN120
      WS020/30050KT
     FM241700 28020G32KT P6SM SCT080 BKN150
     FM250200 28018KT P6SM SCT200 WS020/30045KT
     FM250900 29012KT P6SM SCT200=

USA.gov is the U.S. government's official web portal to all federal, state and local government web resources and services.